sensor_id;sensor_type;location;lat;lon;timestamp;temperature;humidity
3628;DHT22;1830;49.000;12.074;2022-10-16T00:02:22;14.20;99.90
3628;DHT22;1830;49.000;12.074;2022-10-16T00:04:49;14.20;99.90
3628;DHT22;1830;49.000;12.074;2022-10-16T00:07:15;14.20;99.90
3628;DHT22;1830;49.000;12.074;2022-10-16T00:09:42;14.20;99.90
3628;DHT22;1830;49.000;12.074;2022-10-16T00:12:09;14.20;99.90
3628;DHT22;1830;49.000;12.074;2022-10-16T00:14:37;14.20;99.90
3628;DHT22;1830;49.000;12.074;2022-10-16T00:17:06;14.20;99.90
3628;DHT22;1830;49.000;12.074;2022-10-16T00:19:33;14.10;99.90
3628;DHT22;1830;49.000;12.074;2022-10-16T00:22:00;14.20;99.90
3628;DHT22;1830;49.000;12.074;2022-10-16T00:24:28;14.20;99.90
3628;DHT22;1830;49.000;12.074;2022-10-16T00:26:55;14.10;99.90
3628;DHT22;1830;49.000;12.074;2022-10-16T00:29:22;14.20;99.90
3628;DHT22;1830;49.000;12.074;2022-10-16T00:31:50;14.10;99.90
3628;DHT22;1830;49.000;12.074;2022-10-16T00:34:17;14.20;99.90
3628;DHT22;1830;49.000;12.074;2022-10-16T00:36:43;14.20;99.90
3628;DHT22;1830;49.000;12.074;2022-10-16T00:39:10;14.20;99.90
3628;DHT22;1830;49.000;12.074;2022-10-16T00:41:37;14.20;99.90
3628;DHT22;1830;49.000;12.074;2022-10-16T00:44:44;14.20;99.90
3628;DHT22;1830;49.000;12.074;2022-10-16T00:47:17;14.20;99.90
3628;DHT22;1830;49.000;12.074;2022-10-16T00:49:46;14.20;99.90
3628;DHT22;1830;49.000;12.074;2022-10-16T00:52:14;14.20;99.90
3628;DHT22;1830;49.000;12.074;2022-10-16T00:54:41;14.20;99.90
3628;DHT22;1830;49.000;12.074;2022-10-16T00:57:08;14.20;99.90
3628;DHT22;1830;49.000;12.074;2022-10-16T00:59:37;14.10;99.90
3628;DHT22;1830;49.000;12.074;2022-10-16T01:02:07;14.10;99.90
3628;DHT22;1830;49.000;12.074;2022-10-16T01:04:38;14.10;99.90
3628;DHT22;1830;49.000;12.074;2022-10-16T01:07:11;14.00;99.90
3628;DHT22;1830;49.000;12.074;2022-10-16T01:09:47;14.00;99.90
3628;DHT22;1830;49.000;12.074;2022-10-16T01:12:20;14.00;99.90
3628;DHT22;1830;49.000;12.074;2022-10-16T01:14:54;14.00;99.90
3628;DHT22;1830;49.000;12.074;2022-10-16T01:17:29;14.00;99.90
3628;DHT22;1830;49.000;12.074;2022-10-16T01:20:10;14.00;99.90
3628;DHT22;1830;49.000;12.074;2022-10-16T01:22:50;13.90;99.90
3628;DHT22;1830;49.000;12.074;2022-10-16T01:25:28;13.90;99.90
3628;DHT22;1830;49.000;12.074;2022-10-16T01:28:00;13.90;99.90
3628;DHT22;1830;49.000;12.074;2022-10-16T01:30:30;13.90;99.90
3628;DHT22;1830;49.000;12.074;2022-10-16T01:33:02;14.00;99.90
3628;DHT22;1830;49.000;12.074;2022-10-16T01:35:33;14.00;99.90
3628;DHT22;1830;49.000;12.074;2022-10-16T01:38:04;14.00;99.90
3628;DHT22;1830;49.000;12.074;2022-10-16T01:40:34;14.00;99.90
3628;DHT22;1830;49.000;12.074;2022-10-16T01:43:06;14.00;99.90
3628;DHT22;1830;49.000;12.074;2022-10-16T01:45:36;14.00;99.90
3628;DHT22;1830;49.000;12.074;2022-10-16T01:48:05;14.00;99.90
3628;DHT22;1830;49.000;12.074;2022-10-16T01:50:37;14.00;99.90
3628;DHT22;1830;49.000;12.074;2022-10-16T01:53:05;14.00;99.90
3628;DHT22;1830;49.000;12.074;2022-10-16T01:55:38;14.00;99.90
3628;DHT22;1830;49.000;12.074;2022-10-16T01:58:09;14.00;99.90
3628;DHT22;1830;49.000;12.074;2022-10-16T02:00:37;14.00;99.90
3628;DHT22;1830;49.000;12.074;2022-10-16T02:03:05;14.00;99.90
3628;DHT22;1830;49.000;12.074;2022-10-16T02:05:37;14.00;99.90
3628;DHT22;1830;49.000;12.074;2022-10-16T02:08:05;14.00;99.90
3628;DHT22;1830;49.000;12.074;2022-10-16T02:10:32;14.00;99.90
3628;DHT22;1830;49.000;12.074;2022-10-16T02:13:03;13.90;99.90
3628;DHT22;1830;49.000;12.074;2022-10-16T02:15:32;13.90;99.90
3628;DHT22;1830;49.000;12.074;2022-10-16T02:17:59;13.90;99.90
3628;DHT22;1830;49.000;12.074;2022-10-16T02:20:28;13.90;99.90
3628;DHT22;1830;49.000;12.074;2022-10-16T02:23:01;13.90;99.90
3628;DHT22;1830;49.000;12.074;2022-10-16T02:25:31;13.90;99.90
3628;DHT22;1830;49.000;12.074;2022-10-16T02:28:03;13.80;99.90
3628;DHT22;1830;49.000;12.074;2022-10-16T02:30:34;13.90;99.90
3628;DHT22;1830;49.000;12.074;2022-10-16T02:33:05;13.90;99.90
3628;DHT22;1830;49.000;12.074;2022-10-16T02:35:34;13.90;99.90
3628;DHT22;1830;49.000;12.074;2022-10-16T02:38:01;13.90;99.90
3628;DHT22;1830;49.000;12.074;2022-10-16T02:40:28;13.90;99.90
3628;DHT22;1830;49.000;12.074;2022-10-16T02:42:55;13.90;99.90
3628;DHT22;1830;49.000;12.074;2022-10-16T02:45:22;13.90;99.90
3628;DHT22;1830;49.000;12.074;2022-10-16T02:47:51;13.90;99.90
3628;DHT22;1830;49.000;12.074;2022-10-16T02:50:18;13.80;99.90
3628;DHT22;1830;49.000;12.074;2022-10-16T02:52:45;13.80;99.90
3628;DHT22;1830;49.000;12.074;2022-10-16T02:55:11;13.80;99.90
3628;DHT22;1830;49.000;12.074;2022-10-16T02:57:38;13.80;99.90
3628;DHT22;1830;49.000;12.074;2022-10-16T03:00:06;13.80;99.90
3628;DHT22;1830;49.000;12.074;2022-10-16T03:02:34;13.80;99.90
3628;DHT22;1830;49.000;12.074;2022-10-16T03:05:03;13.80;99.90
3628;DHT22;1830;49.000;12.074;2022-10-16T03:07:30;13.80;99.90
3628;DHT22;1830;49.000;12.074;2022-10-16T03:09:56;13.80;99.90
3628;DHT22;1830;49.000;12.074;2022-10-16T03:12:25;13.80;99.90
3628;DHT22;1830;49.000;12.074;2022-10-16T03:14:52;13.80;99.90
3628;DHT22;1830;49.000;12.074;2022-10-16T03:17:19;13.80;99.90
3628;DHT22;1830;49.000;12.074;2022-10-16T03:19:46;13.80;99.90
3628;DHT22;1830;49.000;12.074;2022-10-16T03:22:14;13.80;99.90
3628;DHT22;1830;49.000;12.074;2022-10-16T03:24:40;13.70;99.90
3628;DHT22;1830;49.000;12.074;2022-10-16T03:27:07;13.80;99.90
3628;DHT22;1830;49.000;12.074;2022-10-16T03:29:34;13.80;99.90
3628;DHT22;1830;49.000;12.074;2022-10-16T03:32:01;13.80;99.90
3628;DHT22;1830;49.000;12.074;2022-10-16T03:34:28;13.80;99.90
3628;DHT22;1830;49.000;12.074;2022-10-16T03:36:55;13.80;99.90
3628;DHT22;1830;49.000;12.074;2022-10-16T03:39:23;13.80;99.90
3628;DHT22;1830;49.000;12.074;2022-10-16T03:41:50;13.80;99.90
3628;DHT22;1830;49.000;12.074;2022-10-16T03:44:17;13.80;99.90
3628;DHT22;1830;49.000;12.074;2022-10-16T03:46:43;13.80;99.90
3628;DHT22;1830;49.000;12.074;2022-10-16T03:49:10;13.80;99.90
3628;DHT22;1830;49.000;12.074;2022-10-16T03:51:37;13.80;99.90
3628;DHT22;1830;49.000;12.074;2022-10-16T03:54:04;13.80;99.90
3628;DHT22;1830;49.000;12.074;2022-10-16T03:56:32;13.80;99.90
3628;DHT22;1830;49.000;12.074;2022-10-16T03:58:58;13.80;99.90
3628;DHT22;1830;49.000;12.074;2022-10-16T04:01:25;13.80;99.90
3628;DHT22;1830;49.000;12.074;2022-10-16T04:03:52;13.70;99.90
3628;DHT22;1830;49.000;12.074;2022-10-16T04:06:19;13.70;99.90
3628;DHT22;1830;49.000;12.074;2022-10-16T04:08:45;13.70;99.90
3628;DHT22;1830;49.000;12.074;2022-10-16T04:11:12;13.60;99.90
3628;DHT22;1830;49.000;12.074;2022-10-16T04:13:40;13.60;99.90
3628;DHT22;1830;49.000;12.074;2022-10-16T04:16:07;13.50;99.90
3628;DHT22;1830;49.000;12.074;2022-10-16T04:18:34;13.50;99.90
3628;DHT22;1830;49.000;12.074;2022-10-16T04:21:03;13.50;99.90
3628;DHT22;1830;49.000;12.074;2022-10-16T04:23:29;13.50;99.90
3628;DHT22;1830;49.000;12.074;2022-10-16T04:25:56;13.60;99.90
3628;DHT22;1830;49.000;12.074;2022-10-16T04:28:23;13.60;99.90
3628;DHT22;1830;49.000;12.074;2022-10-16T04:30:51;13.60;99.90
3628;DHT22;1830;49.000;12.074;2022-10-16T04:33:18;13.60;99.90
3628;DHT22;1830;49.000;12.074;2022-10-16T04:35:45;13.60;99.90
3628;DHT22;1830;49.000;12.074;2022-10-16T04:38:11;13.60;99.90
3628;DHT22;1830;49.000;12.074;2022-10-16T04:40:38;13.70;99.90
3628;DHT22;1830;49.000;12.074;2022-10-16T04:43:05;13.60;99.90
3628;DHT22;1830;49.000;12.074;2022-10-16T04:45:32;13.70;99.90
3628;DHT22;1830;49.000;12.074;2022-10-16T04:48:00;13.70;99.90
3628;DHT22;1830;49.000;12.074;2022-10-16T04:50:27;13.70;99.90
3628;DHT22;1830;49.000;12.074;2022-10-16T04:52:54;13.60;99.90
3628;DHT22;1830;49.000;12.074;2022-10-16T04:55:21;13.60;99.90
3628;DHT22;1830;49.000;12.074;2022-10-16T04:57:48;13.60;99.90
3628;DHT22;1830;49.000;12.074;2022-10-16T05:00:15;13.60;99.90
3628;DHT22;1830;49.000;12.074;2022-10-16T05:02:42;13.60;99.90
3628;DHT22;1830;49.000;12.074;2022-10-16T05:05:10;13.60;99.90
3628;DHT22;1830;49.000;12.074;2022-10-16T05:07:37;13.50;99.90
3628;DHT22;1830;49.000;12.074;2022-10-16T05:10:04;13.50;99.90
3628;DHT22;1830;49.000;12.074;2022-10-16T05:12:32;13.50;99.90
3628;DHT22;1830;49.000;12.074;2022-10-16T05:14:59;13.50;99.90
3628;DHT22;1830;49.000;12.074;2022-10-16T05:17:26;13.40;99.90
3628;DHT22;1830;49.000;12.074;2022-10-16T05:19:53;13.40;99.90
3628;DHT22;1830;49.000;12.074;2022-10-16T05:22:21;13.30;99.90
3628;DHT22;1830;49.000;12.074;2022-10-16T05:24:47;13.40;99.90
3628;DHT22;1830;49.000;12.074;2022-10-16T05:27:14;13.40;99.90
3628;DHT22;1830;49.000;12.074;2022-10-16T05:29:45;13.30;99.90
3628;DHT22;1830;49.000;12.074;2022-10-16T05:32:12;13.30;99.90
3628;DHT22;1830;49.000;12.074;2022-10-16T05:34:39;13.30;99.90
3628;DHT22;1830;49.000;12.074;2022-10-16T05:37:06;13.30;99.90
3628;DHT22;1830;49.000;12.074;2022-10-16T05:39:34;13.30;99.90
3628;DHT22;1830;49.000;12.074;2022-10-16T05:42:02;13.30;99.90
3628;DHT22;1830;49.000;12.074;2022-10-16T05:44:29;13.30;99.90
3628;DHT22;1830;49.000;12.074;2022-10-16T05:46:55;13.30;99.90
3628;DHT22;1830;49.000;12.074;2022-10-16T05:49:22;13.40;99.90
3628;DHT22;1830;49.000;12.074;2022-10-16T05:51:49;13.30;99.90
3628;DHT22;1830;49.000;12.074;2022-10-16T05:54:16;13.40;99.90
3628;DHT22;1830;49.000;12.074;2022-10-16T05:56:44;13.30;99.90
3628;DHT22;1830;49.000;12.074;2022-10-16T05:59:11;13.30;99.90
3628;DHT22;1830;49.000;12.074;2022-10-16T06:01:38;13.30;99.90
3628;DHT22;1830;49.000;12.074;2022-10-16T06:04:05;13.30;99.90
3628;DHT22;1830;49.000;12.074;2022-10-16T06:06:31;13.20;99.90
3628;DHT22;1830;49.000;12.074;2022-10-16T06:08:58;13.20;99.90
3628;DHT22;1830;49.000;12.074;2022-10-16T06:11:26;13.20;99.90
3628;DHT22;1830;49.000;12.074;2022-10-16T06:13:57;13.30;99.90
3628;DHT22;1830;49.000;12.074;2022-10-16T06:16:24;13.20;99.90
3628;DHT22;1830;49.000;12.074;2022-10-16T06:18:52;13.30;99.90
3628;DHT22;1830;49.000;12.074;2022-10-16T06:21:21;13.30;99.90
3628;DHT22;1830;49.000;12.074;2022-10-16T06:23:50;13.30;99.90
3628;DHT22;1830;49.000;12.074;2022-10-16T06:26:19;13.30;99.90
3628;DHT22;1830;49.000;12.074;2022-10-16T06:28:46;13.30;99.90
3628;DHT22;1830;49.000;12.074;2022-10-16T06:31:15;13.20;99.90
3628;DHT22;1830;49.000;12.074;2022-10-16T06:33:42;13.20;99.90
3628;DHT22;1830;49.000;12.074;2022-10-16T06:36:12;13.30;99.90
3628;DHT22;1830;49.000;12.074;2022-10-16T06:38:40;13.30;99.90
3628;DHT22;1830;49.000;12.074;2022-10-16T06:41:09;13.40;99.90
3628;DHT22;1830;49.000;12.074;2022-10-16T06:43:37;13.40;99.90
3628;DHT22;1830;49.000;12.074;2022-10-16T06:46:05;13.40;99.90
3628;DHT22;1830;49.000;12.074;2022-10-16T06:48:34;13.40;99.90
3628;DHT22;1830;49.000;12.074;2022-10-16T06:51:03;13.50;99.90
3628;DHT22;1830;49.000;12.074;2022-10-16T06:53:32;13.40;99.90
3628;DHT22;1830;49.000;12.074;2022-10-16T06:56:07;13.40;99.90
3628;DHT22;1830;49.000;12.074;2022-10-16T06:58:33;13.40;99.90
3628;DHT22;1830;49.000;12.074;2022-10-16T07:01:00;13.40;99.90
3628;DHT22;1830;49.000;12.074;2022-10-16T07:03:27;13.40;99.90
3628;DHT22;1830;49.000;12.074;2022-10-16T07:05:55;13.40;99.90
3628;DHT22;1830;49.000;12.074;2022-10-16T07:08:22;13.40;99.90
3628;DHT22;1830;49.000;12.074;2022-10-16T07:10:58;13.40;99.90
3628;DHT22;1830;49.000;12.074;2022-10-16T07:13:25;13.40;99.90
3628;DHT22;1830;49.000;12.074;2022-10-16T07:15:51;13.40;99.90
3628;DHT22;1830;49.000;12.074;2022-10-16T07:18:18;13.50;99.90
3628;DHT22;1830;49.000;12.074;2022-10-16T07:20:45;13.50;99.90
3628;DHT22;1830;49.000;12.074;2022-10-16T07:23:13;13.60;99.90
3628;DHT22;1830;49.000;12.074;2022-10-16T07:25:40;13.60;99.90
3628;DHT22;1830;49.000;12.074;2022-10-16T07:28:07;13.60;99.90
3628;DHT22;1830;49.000;12.074;2022-10-16T07:30:35;13.70;99.90
3628;DHT22;1830;49.000;12.074;2022-10-16T07:33:03;13.70;99.90
3628;DHT22;1830;49.000;12.074;2022-10-16T07:35:30;13.70;99.90
3628;DHT22;1830;49.000;12.074;2022-10-16T07:37:56;13.80;99.90
3628;DHT22;1830;49.000;12.074;2022-10-16T07:40:25;13.80;99.90
3628;DHT22;1830;49.000;12.074;2022-10-16T07:42:52;13.90;99.90
3628;DHT22;1830;49.000;12.074;2022-10-16T07:45:19;14.00;99.90
3628;DHT22;1830;49.000;12.074;2022-10-16T07:47:46;14.00;99.90
3628;DHT22;1830;49.000;12.074;2022-10-16T07:50:13;14.00;99.90
3628;DHT22;1830;49.000;12.074;2022-10-16T07:52:40;14.10;99.90
3628;DHT22;1830;49.000;12.074;2022-10-16T07:55:08;14.10;99.90
3628;DHT22;1830;49.000;12.074;2022-10-16T07:57:36;14.10;99.90
3628;DHT22;1830;49.000;12.074;2022-10-16T08:00:03;14.20;99.90
3628;DHT22;1830;49.000;12.074;2022-10-16T08:02:31;14.20;99.90
3628;DHT22;1830;49.000;12.074;2022-10-16T08:04:58;14.20;99.90
3628;DHT22;1830;49.000;12.074;2022-10-16T08:07:25;14.00;99.90
3628;DHT22;1830;49.000;12.074;2022-10-16T08:09:51;14.10;99.90
3628;DHT22;1830;49.000;12.074;2022-10-16T08:12:18;14.20;99.90
3628;DHT22;1830;49.000;12.074;2022-10-16T08:14:46;14.30;99.90
3628;DHT22;1830;49.000;12.074;2022-10-16T08:17:14;14.30;99.90
3628;DHT22;1830;49.000;12.074;2022-10-16T08:19:44;14.30;99.90
3628;DHT22;1830;49.000;12.074;2022-10-16T08:22:11;14.40;99.90
3628;DHT22;1830;49.000;12.074;2022-10-16T08:24:38;14.60;99.90
3628;DHT22;1830;49.000;12.074;2022-10-16T08:27:04;14.70;99.90
3628;DHT22;1830;49.000;12.074;2022-10-16T08:29:32;14.80;99.90
3628;DHT22;1830;49.000;12.074;2022-10-16T08:32:00;14.90;99.90
3628;DHT22;1830;49.000;12.074;2022-10-16T08:34:27;14.90;99.90
3628;DHT22;1830;49.000;12.074;2022-10-16T08:36:54;14.90;99.90
3628;DHT22;1830;49.000;12.074;2022-10-16T08:39:21;15.00;99.90
3628;DHT22;1830;49.000;12.074;2022-10-16T08:42:19;15.00;99.90
3628;DHT22;1830;49.000;12.074;2022-10-16T08:47:49;15.10;99.90
3628;DHT22;1830;49.000;12.074;2022-10-16T08:50:23;15.10;99.90
3628;DHT22;1830;49.000;12.074;2022-10-16T08:52:51;15.10;99.90
3628;DHT22;1830;49.000;12.074;2022-10-16T08:55:33;15.10;99.90
3628;DHT22;1830;49.000;12.074;2022-10-16T08:58:10;15.20;99.90
3628;DHT22;1830;49.000;12.074;2022-10-16T09:00:39;15.20;99.90
3628;DHT22;1830;49.000;12.074;2022-10-16T09:03:16;15.30;99.90
3628;DHT22;1830;49.000;12.074;2022-10-16T09:05:52;15.40;99.90
3628;DHT22;1830;49.000;12.074;2022-10-16T09:08:29;15.40;99.90
3628;DHT22;1830;49.000;12.074;2022-10-16T09:10:59;15.50;99.90
3628;DHT22;1830;49.000;12.074;2022-10-16T09:13:36;15.60;99.90
3628;DHT22;1830;49.000;12.074;2022-10-16T09:16:15;15.70;99.90
3628;DHT22;1830;49.000;12.074;2022-10-16T09:18:48;15.70;99.90
3628;DHT22;1830;49.000;12.074;2022-10-16T09:21:21;15.70;99.90
3628;DHT22;1830;49.000;12.074;2022-10-16T09:23:49;15.70;99.90
3628;DHT22;1830;49.000;12.074;2022-10-16T09:26:17;15.90;99.90
3628;DHT22;1830;49.000;12.074;2022-10-16T09:28:45;16.00;99.90
3628;DHT22;1830;49.000;12.074;2022-10-16T09:31:17;16.10;99.90
3628;DHT22;1830;49.000;12.074;2022-10-16T09:33:48;16.10;99.90
3628;DHT22;1830;49.000;12.074;2022-10-16T09:36:16;16.20;99.90
3628;DHT22;1830;49.000;12.074;2022-10-16T09:38:44;16.20;99.90
3628;DHT22;1830;49.000;12.074;2022-10-16T09:41:16;16.20;99.90
3628;DHT22;1830;49.000;12.074;2022-10-16T09:43:49;16.20;99.90
3628;DHT22;1830;49.000;12.074;2022-10-16T09:46:25;16.20;99.90
3628;DHT22;1830;49.000;12.074;2022-10-16T09:48:56;16.30;99.90
3628;DHT22;1830;49.000;12.074;2022-10-16T09:51:26;16.40;99.90
3628;DHT22;1830;49.000;12.074;2022-10-16T09:53:58;16.50;99.90
3628;DHT22;1830;49.000;12.074;2022-10-16T09:56:27;16.50;99.90
3628;DHT22;1830;49.000;12.074;2022-10-16T09:58:55;16.60;99.90
3628;DHT22;1830;49.000;12.074;2022-10-16T10:01:26;16.60;99.90
3628;DHT22;1830;49.000;12.074;2022-10-16T10:03:57;16.70;99.90
3628;DHT22;1830;49.000;12.074;2022-10-16T10:06:29;16.70;99.90
3628;DHT22;1830;49.000;12.074;2022-10-16T10:09:03;16.80;99.90
3628;DHT22;1830;49.000;12.074;2022-10-16T10:11:42;16.80;99.90
3628;DHT22;1830;49.000;12.074;2022-10-16T10:14:17;16.80;99.90
3628;DHT22;1830;49.000;12.074;2022-10-16T10:16:45;16.80;99.90
3628;DHT22;1830;49.000;12.074;2022-10-16T10:19:16;16.90;99.90
3628;DHT22;1830;49.000;12.074;2022-10-16T10:21:43;17.00;99.90
3628;DHT22;1830;49.000;12.074;2022-10-16T10:24:11;17.00;99.90
3628;DHT22;1830;49.000;12.074;2022-10-16T10:26:40;17.00;99.90
3628;DHT22;1830;49.000;12.074;2022-10-16T10:29:14;17.10;99.90
3628;DHT22;1830;49.000;12.074;2022-10-16T10:31:46;17.20;99.90
3628;DHT22;1830;49.000;12.074;2022-10-16T10:34:31;17.20;99.90
3628;DHT22;1830;49.000;12.074;2022-10-16T10:37:17;17.20;99.90
3628;DHT22;1830;49.000;12.074;2022-10-16T10:39:56;17.30;99.90
3628;DHT22;1830;49.000;12.074;2022-10-16T10:42:32;17.40;99.90
3628;DHT22;1830;49.000;12.074;2022-10-16T10:45:14;17.50;99.90
3628;DHT22;1830;49.000;12.074;2022-10-16T10:47:51;17.60;99.90
3628;DHT22;1830;49.000;12.074;2022-10-16T10:50:26;17.60;99.90
3628;DHT22;1830;49.000;12.074;2022-10-16T10:53:02;17.60;99.90
3628;DHT22;1830;49.000;12.074;2022-10-16T10:55:38;17.60;99.90
3628;DHT22;1830;49.000;12.074;2022-10-16T10:58:19;17.60;99.90
3628;DHT22;1830;49.000;12.074;2022-10-16T11:00:53;17.60;99.90
3628;DHT22;1830;49.000;12.074;2022-10-16T11:03:35;17.70;99.90
3628;DHT22;1830;49.000;12.074;2022-10-16T11:06:12;17.70;99.90
3628;DHT22;1830;49.000;12.074;2022-10-16T11:08:45;17.80;99.90
3628;DHT22;1830;49.000;12.074;2022-10-16T11:11:17;17.90;99.90
3628;DHT22;1830;49.000;12.074;2022-10-16T11:13:54;17.90;99.90
3628;DHT22;1830;49.000;12.074;2022-10-16T11:16:26;18.00;99.90
3628;DHT22;1830;49.000;12.074;2022-10-16T11:18:58;18.00;99.90
3628;DHT22;1830;49.000;12.074;2022-10-16T11:21:30;18.00;99.90
3628;DHT22;1830;49.000;12.074;2022-10-16T11:24:03;18.10;99.90
3628;DHT22;1830;49.000;12.074;2022-10-16T11:26:34;18.30;99.90
3628;DHT22;1830;49.000;12.074;2022-10-16T11:29:04;18.50;99.90
3628;DHT22;1830;49.000;12.074;2022-10-16T11:31:37;18.60;99.90
3628;DHT22;1830;49.000;12.074;2022-10-16T11:34:11;18.80;99.90
3628;DHT22;1830;49.000;12.074;2022-10-16T11:36:48;18.90;99.90
3628;DHT22;1830;49.000;12.074;2022-10-16T11:39:20;19.10;99.90
3628;DHT22;1830;49.000;12.074;2022-10-16T11:42:18;19.40;99.90
3628;DHT22;1830;49.000;12.074;2022-10-16T11:44:51;19.50;99.90
3628;DHT22;1830;49.000;12.074;2022-10-16T11:47:34;19.70;99.90
3628;DHT22;1830;49.000;12.074;2022-10-16T11:50:19;19.80;99.90
3628;DHT22;1830;49.000;12.074;2022-10-16T11:52:53;19.80;99.90
3628;DHT22;1830;49.000;12.074;2022-10-16T11:55:26;19.80;99.90
3628;DHT22;1830;49.000;12.074;2022-10-16T11:57:59;19.80;99.90
3628;DHT22;1830;49.000;12.074;2022-10-16T12:00:31;19.80;99.90
3628;DHT22;1830;49.000;12.074;2022-10-16T12:03:05;19.90;99.90
3628;DHT22;1830;49.000;12.074;2022-10-16T12:06:02;19.90;99.90
3628;DHT22;1830;49.000;12.074;2022-10-16T12:08:35;20.00;99.90
3628;DHT22;1830;49.000;12.074;2022-10-16T12:11:19;20.00;99.90
3628;DHT22;1830;49.000;12.074;2022-10-16T12:13:46;20.10;99.90
3628;DHT22;1830;49.000;12.074;2022-10-16T12:16:32;20.20;99.90
3628;DHT22;1830;49.000;12.074;2022-10-16T12:19:15;20.30;99.90
3628;DHT22;1830;49.000;12.074;2022-10-16T12:21:43;20.20;99.90
3628;DHT22;1830;49.000;12.074;2022-10-16T12:24:24;20.20;99.90
3628;DHT22;1830;49.000;12.074;2022-10-16T12:26:54;20.10;99.90
3628;DHT22;1830;49.000;12.074;2022-10-16T12:29:28;20.10;99.90
3628;DHT22;1830;49.000;12.074;2022-10-16T12:31:57;20.20;99.90
3628;DHT22;1830;49.000;12.074;2022-10-16T12:34:28;20.20;99.90
3628;DHT22;1830;49.000;12.074;2022-10-16T12:37:06;20.30;99.90
3628;DHT22;1830;49.000;12.074;2022-10-16T12:39:35;20.30;99.90
3628;DHT22;1830;49.000;12.074;2022-10-16T12:42:05;20.20;99.90
3628;DHT22;1830;49.000;12.074;2022-10-16T12:44:33;20.20;99.90
3628;DHT22;1830;49.000;12.074;2022-10-16T12:47:01;20.30;99.90
3628;DHT22;1830;49.000;12.074;2022-10-16T12:49:34;20.20;99.90
3628;DHT22;1830;49.000;12.074;2022-10-16T12:52:03;20.30;99.90
3628;DHT22;1830;49.000;12.074;2022-10-16T12:54:31;20.30;99.90
3628;DHT22;1830;49.000;12.074;2022-10-16T12:57:17;20.30;99.90
3628;DHT22;1830;49.000;12.074;2022-10-16T12:59:52;20.40;99.90
3628;DHT22;1830;49.000;12.074;2022-10-16T13:05:27;20.40;99.90
3628;DHT22;1830;49.000;12.074;2022-10-16T13:08:06;20.30;99.90
3628;DHT22;1830;49.000;12.074;2022-10-16T13:10:41;20.30;99.90
3628;DHT22;1830;49.000;12.074;2022-10-16T13:13:30;20.30;99.90
3628;DHT22;1830;49.000;12.074;2022-10-16T13:16:10;20.20;99.90
3628;DHT22;1830;49.000;12.074;2022-10-16T13:18:48;20.10;99.90
3628;DHT22;1830;49.000;12.074;2022-10-16T13:21:31;20.10;99.90
3628;DHT22;1830;49.000;12.074;2022-10-16T13:24:06;20.10;99.90
3628;DHT22;1830;49.000;12.074;2022-10-16T13:26:41;20.20;99.90
3628;DHT22;1830;49.000;12.074;2022-10-16T13:29:12;20.30;99.90
3628;DHT22;1830;49.000;12.074;2022-10-16T13:31:40;20.40;99.90
3628;DHT22;1830;49.000;12.074;2022-10-16T13:34:13;20.50;99.90
3628;DHT22;1830;49.000;12.074;2022-10-16T13:36:44;20.70;99.90
3628;DHT22;1830;49.000;12.074;2022-10-16T13:39:14;20.60;99.90
3628;DHT22;1830;49.000;12.074;2022-10-16T13:41:43;20.70;99.90
3628;DHT22;1830;49.000;12.074;2022-10-16T13:44:22;20.60;99.90
3628;DHT22;1830;49.000;12.074;2022-10-16T13:46:58;20.60;99.90
3628;DHT22;1830;49.000;12.074;2022-10-16T13:49:25;20.70;99.90
3628;DHT22;1830;49.000;12.074;2022-10-16T13:51:56;20.70;99.90
3628;DHT22;1830;49.000;12.074;2022-10-16T13:54:23;20.60;99.90
3628;DHT22;1830;49.000;12.074;2022-10-16T13:57:04;20.50;99.90
3628;DHT22;1830;49.000;12.074;2022-10-16T13:59:35;20.50;99.90
3628;DHT22;1830;49.000;12.074;2022-10-16T14:02:15;20.40;99.90
3628;DHT22;1830;49.000;12.074;2022-10-16T14:04:48;20.40;99.90
3628;DHT22;1830;49.000;12.074;2022-10-16T14:07:25;20.40;99.90
3628;DHT22;1830;49.000;12.074;2022-10-16T14:09:53;20.40;99.90
3628;DHT22;1830;49.000;12.074;2022-10-16T14:12:23;20.30;99.90
3628;DHT22;1830;49.000;12.074;2022-10-16T14:14:57;20.30;99.90
3628;DHT22;1830;49.000;12.074;2022-10-16T14:17:26;20.30;99.90
3628;DHT22;1830;49.000;12.074;2022-10-16T14:19:55;20.30;99.90
3628;DHT22;1830;49.000;12.074;2022-10-16T14:22:29;20.30;99.90
3628;DHT22;1830;49.000;12.074;2022-10-16T14:24:57;20.30;99.90
3628;DHT22;1830;49.000;12.074;2022-10-16T14:27:29;20.20;99.90
3628;DHT22;1830;49.000;12.074;2022-10-16T14:30:15;20.20;99.90
3628;DHT22;1830;49.000;12.074;2022-10-16T14:32:53;20.10;99.90
3628;DHT22;1830;49.000;12.074;2022-10-16T14:35:26;20.10;99.90
3628;DHT22;1830;49.000;12.074;2022-10-16T14:37:53;20.00;99.90
3628;DHT22;1830;49.000;12.074;2022-10-16T14:40:21;20.00;99.90
3628;DHT22;1830;49.000;12.074;2022-10-16T14:42:49;19.90;99.90
3628;DHT22;1830;49.000;12.074;2022-10-16T14:45:20;19.90;99.90
3628;DHT22;1830;49.000;12.074;2022-10-16T14:47:50;19.90;99.90
3628;DHT22;1830;49.000;12.074;2022-10-16T14:50:17;19.80;99.90
3628;DHT22;1830;49.000;12.074;2022-10-16T14:52:44;19.80;99.90
3628;DHT22;1830;49.000;12.074;2022-10-16T14:55:11;19.70;99.90
3628;DHT22;1830;49.000;12.074;2022-10-16T14:57:38;19.70;99.90
3628;DHT22;1830;49.000;12.074;2022-10-16T15:00:13;19.60;99.90
3628;DHT22;1830;49.000;12.074;2022-10-16T15:02:42;19.60;99.90
3628;DHT22;1830;49.000;12.074;2022-10-16T15:05:15;19.50;99.90
3628;DHT22;1830;49.000;12.074;2022-10-16T15:07:42;19.50;99.90
3628;DHT22;1830;49.000;12.074;2022-10-16T15:10:10;19.50;99.90
3628;DHT22;1830;49.000;12.074;2022-10-16T15:12:39;19.40;99.90
3628;DHT22;1830;49.000;12.074;2022-10-16T15:15:24;19.50;99.90
3628;DHT22;1830;49.000;12.074;2022-10-16T15:17:54;19.40;99.90
3628;DHT22;1830;49.000;12.074;2022-10-16T15:20:22;19.40;99.90
3628;DHT22;1830;49.000;12.074;2022-10-16T15:22:49;19.30;99.90
3628;DHT22;1830;49.000;12.074;2022-10-16T15:25:27;19.20;99.90
3628;DHT22;1830;49.000;12.074;2022-10-16T15:27:55;19.20;99.90
3628;DHT22;1830;49.000;12.074;2022-10-16T15:30:23;19.10;99.90
3628;DHT22;1830;49.000;12.074;2022-10-16T15:32:49;19.00;99.90
3628;DHT22;1830;49.000;12.074;2022-10-16T15:35:18;18.90;99.90
3628;DHT22;1830;49.000;12.074;2022-10-16T15:37:46;18.80;99.90
3628;DHT22;1830;49.000;12.074;2022-10-16T15:40:14;18.80;99.90
3628;DHT22;1830;49.000;12.074;2022-10-16T15:42:41;18.70;99.90
3628;DHT22;1830;49.000;12.074;2022-10-16T15:45:09;18.60;99.90
3628;DHT22;1830;49.000;12.074;2022-10-16T15:47:36;18.60;99.90
3628;DHT22;1830;49.000;12.074;2022-10-16T15:50:04;18.60;99.90
3628;DHT22;1830;49.000;12.074;2022-10-16T15:52:32;18.50;99.90
3628;DHT22;1830;49.000;12.074;2022-10-16T15:54:59;18.50;99.90
3628;DHT22;1830;49.000;12.074;2022-10-16T15:57:28;18.40;99.90
3628;DHT22;1830;49.000;12.074;2022-10-16T15:59:55;18.40;99.90
3628;DHT22;1830;49.000;12.074;2022-10-16T16:02:21;18.30;99.90
3628;DHT22;1830;49.000;12.074;2022-10-16T16:04:48;18.20;99.90
3628;DHT22;1830;49.000;12.074;2022-10-16T16:07:16;18.20;99.90
3628;DHT22;1830;49.000;12.074;2022-10-16T16:09:44;18.10;99.90
3628;DHT22;1830;49.000;12.074;2022-10-16T16:12:11;18.10;99.90